createdAt,value
2017-12-26T00:00:24.254Z,19.6
2017-12-26T00:01:26.155Z,19.6
2017-12-26T00:02:28.047Z,19.6
2017-12-26T00:03:29.388Z,19.6
2017-12-26T00:04:31.018Z,19.6
2017-12-26T00:05:32.623Z,19.6
2017-12-26T00:06:34.518Z,19.6
2017-12-26T00:07:36.414Z,19.6
2017-12-26T00:08:37.456Z,19.6
2017-12-26T00:09:39.351Z,19.6
2017-12-26T00:10:40.948Z,19.6
2017-12-26T00:11:42.543Z,19.6
2017-12-26T00:12:44.141Z,19.6
2017-12-26T00:13:46.035Z,19.6
2017-12-26T00:14:47.927Z,19.6
2017-12-26T00:15:49.823Z,19.6
2017-12-26T00:16:51.141Z,19.6
2017-12-26T00:17:52.466Z,19.6
2017-12-26T00:18:54.055Z,19.6
2017-12-26T00:19:55.673Z,19.6
2017-12-26T00:20:57.019Z,19.6
2017-12-26T00:21:58.333Z,19.6
2017-12-26T00:22:59.955Z,19.6
2017-12-26T00:24:01.849Z,19.6
2017-12-26T00:25:03.744Z,19.6
2017-12-26T00:26:05.640Z,19.6
2017-12-26T00:27:07.569Z,19.6
2017-12-26T00:28:08.885Z,19.7
2017-12-26T00:29:10.203Z,19.7
2017-12-26T00:30:11.522Z,19.6
2017-12-26T00:31:13.143Z,19.7
2017-12-26T00:32:14.488Z,19.7
2017-12-26T00:33:16.104Z,19.7
2017-12-26T00:34:17.437Z,19.7
2017-12-26T00:35:19.058Z,19.7
2017-12-26T00:36:20.950Z,19.6
2017-12-26T00:37:22.851Z,19.7
2017-12-26T00:38:24.743Z,19.7
2017-12-26T00:39:26.640Z,19.6
2017-12-26T00:40:28.255Z,19.6
2017-12-26T00:41:29.893Z,19.6
2017-12-26T00:42:31.510Z,19.6
2017-12-26T00:43:33.148Z,19.6
2017-12-26T00:44:34.745Z,19.7
2017-12-26T00:45:36.084Z,19.7
2017-12-26T00:46:37.677Z,19.7
2017-12-26T00:47:39.019Z,19.6
2017-12-26T00:48:40.912Z,19.7
2017-12-26T00:49:42.810Z,19.6
2017-12-26T00:50:44.429Z,19.7
2017-12-26T00:51:45.472Z,19.7
2017-12-26T00:52:46.830Z,19.7
2017-12-26T00:53:48.719Z,19.7
2017-12-26T00:54:50.621Z,19.7
2017-12-26T00:55:52.240Z,19.6
2017-12-26T00:56:54.137Z,19.7
2017-12-26T00:57:55.754Z,19.7
2017-12-26T00:58:57.350Z,19.7
2017-12-26T00:59:58.691Z,19.7
2017-12-26T01:01:00.020Z,19.7
2017-12-26T01:02:01.330Z,19.7
2017-12-26T01:03:03.223Z,19.7
2017-12-26T01:04:04.843Z,19.6
2017-12-26T01:05:06.162Z,19.7
2017-12-26T01:06:07.781Z,19.6
2017-12-26T01:07:09.398Z,19.7
2017-12-26T01:08:11.291Z,19.7
2017-12-26T01:09:12.909Z,19.7
2017-12-26T01:10:14.805Z,19.7
2017-12-26T01:11:16.698Z,19.7
2017-12-26T01:12:18.596Z,19.7
2017-12-26T01:13:20.214Z,19.7
2017-12-26T01:14:21.834Z,19.7
2017-12-26T01:15:23.451Z,19.7
2017-12-26T01:16:25.047Z,19.7
2017-12-26T01:17:26.396Z,19.8
2017-12-26T01:18:28.290Z,19.7
2017-12-26T01:19:30.215Z,19.7
2017-12-26T01:20:31.543Z,19.7
2017-12-26T01:21:33.437Z,19.6
2017-12-26T01:22:35.052Z,19.6
2017-12-26T01:23:36.658Z,19.7
2017-12-26T01:24:37.977Z,19.7
2017-12-26T01:25:39.596Z,19.7
2017-12-26T01:26:41.230Z,19.7
2017-12-26T01:27:42.835Z,19.7
2017-12-26T01:28:44.738Z,19.8
2017-12-26T01:29:46.059Z,19.7
2017-12-26T01:30:47.687Z,19.8
2017-12-26T01:31:49.280Z,19.7
2017-12-26T01:32:50.876Z,19.7
2017-12-26T01:33:52.475Z,19.7
2017-12-26T01:34:54.090Z,19.7
2017-12-26T01:35:55.708Z,19.7
2017-12-26T01:36:57.327Z,19.7
2017-12-26T01:37:58.389Z,19.6
2017-12-26T01:39:00.283Z,19.6
2017-12-26T01:40:02.176Z,19.7
2017-12-26T01:41:03.793Z,19.8
2017-12-26T01:42:05.112Z,19.7
2017-12-26T01:43:07.005Z,19.7
2017-12-26T01:44:08.900Z,19.7
2017-12-26T01:45:10.222Z,19.7
2017-12-26T01:46:11.260Z,19.7
2017-12-26T01:47:12.873Z,19.7
2017-12-26T01:48:14.475Z,19.7
2017-12-26T01:49:16.375Z,19.7
2017-12-26T01:50:18.268Z,19.7
2017-12-26T01:51:19.889Z,19.7
2017-12-26T01:52:21.508Z,19.7
2017-12-26T01:53:23.126Z,19.7
2017-12-26T01:54:25.021Z,19.7
2017-12-26T01:55:26.922Z,19.7
2017-12-26T01:56:27.964Z,19.7
2017-12-26T01:57:29.559Z,19.7
2017-12-26T01:58:30.600Z,19.7
2017-12-26T01:59:32.219Z,19.7
2017-12-26T02:00:33.815Z,19.8
2017-12-26T02:01:35.715Z,19.8
2017-12-26T02:02:37.616Z,19.7
2017-12-26T02:03:39.234Z,19.7
2017-12-26T02:04:41.131Z,19.7
2017-12-26T02:05:43.027Z,19.7
2017-12-26T02:06:43.789Z,19.7
2017-12-26T02:07:45.129Z,19.7
2017-12-26T02:08:47.024Z,19.8
2017-12-26T02:09:48.640Z,19.7
2017-12-26T02:10:50.535Z,19.6
2017-12-26T02:11:52.430Z,19.7
2017-12-26T02:12:54.049Z,19.7
2017-12-26T02:13:55.666Z,19.7
2017-12-26T02:14:56.985Z,19.7
2017-12-26T02:15:58.604Z,19.7
2017-12-26T02:17:00.220Z,19.7
2017-12-26T02:18:01.841Z,19.8
2017-12-26T02:19:03.476Z,19.7
2017-12-26T02:20:04.865Z,19.8
2017-12-26T02:21:06.484Z,19.8
2017-12-26T02:22:08.381Z,19.8
2017-12-26T02:23:09.729Z,19.7
2017-12-26T02:24:11.624Z,19.7
2017-12-26T02:25:12.944Z,19.7
2017-12-26T02:26:14.286Z,19.7
2017-12-26T02:27:15.608Z,19.7
2017-12-26T02:28:17.506Z,19.7
2017-12-26T02:29:19.402Z,19.7
2017-12-26T02:30:21.000Z,19.8
2017-12-26T02:31:22.896Z,19.7
2017-12-26T02:32:24.516Z,19.7
2017-12-26T02:33:26.445Z,19.7
2017-12-26T02:34:28.388Z,19.8
2017-12-26T02:35:30.277Z,19.7
2017-12-26T02:36:31.896Z,19.7
2017-12-26T02:37:33.217Z,19.7
2017-12-26T02:38:35.113Z,19.7
2017-12-26T02:39:36.733Z,19.7
2017-12-26T02:40:38.350Z,19.7
2017-12-26T02:41:39.966Z,19.7
2017-12-26T02:42:41.861Z,19.7
2017-12-26T02:43:43.759Z,19.7
2017-12-26T02:44:45.399Z,19.7
2017-12-26T02:45:47.294Z,19.8
2017-12-26T02:46:48.917Z,19.7
2017-12-26T02:47:50.812Z,19.7
2017-12-26T02:48:52.703Z,19.8
2017-12-26T02:49:54.600Z,19.8
2017-12-26T02:50:56.498Z,19.7
2017-12-26T02:51:58.394Z,19.8
2017-12-26T02:53:00.014Z,19.8
2017-12-26T02:54:01.634Z,19.8
2017-12-26T02:55:03.253Z,19.8
2017-12-26T02:56:04.598Z,19.7
2017-12-26T02:57:06.230Z,19.8
2017-12-26T02:58:08.128Z,19.7
2017-12-26T02:59:09.729Z,19.7
2017-12-26T03:00:11.627Z,19.7
2017-12-26T03:01:12.966Z,19.7
2017-12-26T03:02:14.289Z,19.8
2017-12-26T03:03:15.620Z,19.8
2017-12-26T03:04:17.236Z,19.8
2017-12-26T03:05:18.560Z,19.8
2017-12-26T03:06:20.181Z,19.7
2017-12-26T03:07:22.078Z,19.7
2017-12-26T03:08:23.975Z,19.8
2017-12-26T03:09:25.316Z,19.8
2017-12-26T03:10:26.933Z,19.8
2017-12-26T03:11:28.831Z,19.8
2017-12-26T03:12:30.731Z,19.8
2017-12-26T03:13:32.623Z,19.8
2017-12-26T03:14:34.240Z,19.8
2017-12-26T03:15:36.134Z,19.8
2017-12-26T03:16:38.031Z,19.7
2017-12-26T03:17:39.650Z,19.8
2017-12-26T03:18:41.546Z,19.7
2017-12-26T03:19:43.444Z,19.7
2017-12-26T03:20:44.763Z,19.8
2017-12-26T03:21:46.386Z,19.7
2017-12-26T03:22:48.007Z,19.9
2017-12-26T03:23:49.901Z,19.7
2017-12-26T03:24:51.518Z,19.8
2017-12-26T03:25:53.136Z,19.8
2017-12-26T03:26:55.031Z,19.8
2017-12-26T03:27:56.394Z,19.8
2017-12-26T03:28:57.707Z,19.8
2017-12-26T03:29:59.312Z,19.7
2017-12-26T03:31:01.207Z,19.7
2017-12-26T03:32:03.099Z,19.8
2017-12-26T03:33:04.995Z,19.7
2017-12-26T03:34:06.892Z,19.7
2017-12-26T03:35:08.512Z,19.8
2017-12-26T03:36:10.408Z,19.8
2017-12-26T03:37:12.304Z,19.8
2017-12-26T03:38:14.222Z,19.8
2017-12-26T03:39:15.579Z,19.8
2017-12-26T03:40:16.901Z,19.8
2017-12-26T03:41:18.796Z,19.8
2017-12-26T03:42:20.401Z,19.7
2017-12-26T03:43:21.733Z,19.8
2017-12-26T03:44:23.631Z,19.8
2017-12-26T03:45:25.528Z,19.8
2017-12-26T03:46:27.426Z,19.7
2017-12-26T03:47:29.323Z,19.8
2017-12-26T03:48:30.654Z,19.8
2017-12-26T03:49:32.264Z,19.9
2017-12-26T03:50:33.605Z,19.8
2017-12-26T03:51:35.224Z,19.7
2017-12-26T03:52:36.842Z,19.7
2017-12-26T03:53:38.443Z,19.9
2017-12-26T03:54:40.042Z,19.8
2017-12-26T03:55:41.359Z,19.8
2017-12-26T03:56:43.290Z,19.8
2017-12-26T03:57:44.890Z,19.8
2017-12-26T03:58:46.784Z,19.7
2017-12-26T03:59:48.677Z,19.8
2017-12-26T04:00:50.296Z,19.9
2017-12-26T04:01:52.193Z,19.8
2017-12-26T04:02:53.790Z,19.8
2017-12-26T04:03:55.685Z,19.8
2017-12-26T04:04:57.286Z,19.8
2017-12-26T04:05:59.211Z,19.9
2017-12-26T04:07:00.828Z,19.7
2017-12-26T04:08:02.726Z,19.8
2017-12-26T04:09:04.626Z,19.8
2017-12-26T04:10:06.226Z,19.8
2017-12-26T04:11:07.842Z,19.8
2017-12-26T04:12:09.460Z,19.8
2017-12-26T04:13:11.061Z,19.9
2017-12-26T04:14:12.956Z,19.8
2017-12-26T04:15:14.302Z,19.9
2017-12-26T04:16:15.919Z,19.8
2017-12-26T04:17:17.815Z,19.8
2017-12-26T04:18:19.711Z,19.8
2017-12-26T04:19:21.032Z,19.9
2017-12-26T04:20:22.631Z,19.8
2017-12-26T04:21:24.525Z,19.9
2017-12-26T04:22:26.431Z,19.9
2017-12-26T04:23:28.322Z,19.9
2017-12-26T04:24:30.215Z,19.8
2017-12-26T04:25:32.109Z,19.9
2017-12-26T04:26:33.736Z,19.8
2017-12-26T04:27:35.327Z,19.9
2017-12-26T04:28:36.942Z,19.9
2017-12-26T04:29:38.566Z,19.8
2017-12-26T04:30:40.181Z,19.9
2017-12-26T04:31:42.079Z,19.9
2017-12-26T04:32:43.974Z,19.8
2017-12-26T04:33:45.315Z,19.9
2017-12-26T04:34:46.935Z,19.9
2017-12-26T04:35:48.533Z,19.8
2017-12-26T04:36:50.152Z,19.8
2017-12-26T04:37:51.751Z,19.9
2017-12-26T04:38:53.070Z,19.9
2017-12-26T04:39:54.970Z,19.9
2017-12-26T04:40:56.867Z,19.9
2017-12-26T04:41:58.486Z,19.9
2017-12-26T04:42:59.529Z,19.9
2017-12-26T04:44:00.575Z,19.8
2017-12-26T04:45:02.465Z,19.9
2017-12-26T04:46:03.808Z,19.8
2017-12-26T04:47:05.409Z,19.9
2017-12-26T04:48:07.026Z,19.9
2017-12-26T04:49:08.940Z,19.9
2017-12-26T04:50:10.264Z,19.9
2017-12-26T04:51:11.859Z,19.9
2017-12-26T04:52:13.756Z,19.9
2017-12-26T04:53:15.355Z,19.9
2017-12-26T04:54:16.974Z,19.8
2017-12-26T04:55:18.871Z,19.9
2017-12-26T04:56:20.241Z,19.9
2017-12-26T04:57:21.859Z,19.9
2017-12-26T04:58:23.483Z,19.9
2017-12-26T04:59:25.098Z,20
2017-12-26T05:00:26.719Z,19.9
2017-12-26T05:01:28.338Z,19.9
2017-12-26T05:02:29.684Z,20
2017-12-26T05:03:31.581Z,19.9
2017-12-26T05:04:33.477Z,19.9
2017-12-26T05:05:35.098Z,19.9
2017-12-26T05:06:36.452Z,19.9
2017-12-26T05:07:38.064Z,20
2017-12-26T05:08:39.957Z,19.9
2017-12-26T05:09:41.915Z,20
2017-12-26T05:10:43.810Z,19.9
2017-12-26T05:11:45.426Z,19.9
2017-12-26T05:12:47.319Z,20
2017-12-26T05:13:49.217Z,20
2017-12-26T05:14:51.114Z,20
2017-12-26T05:15:52.163Z,19.9
2017-12-26T05:16:54.059Z,20
2017-12-26T05:17:55.381Z,20
2017-12-26T05:18:56.428Z,19.9
2017-12-26T05:19:58.043Z,20
2017-12-26T05:20:59.662Z,20
2017-12-26T05:22:01.279Z,20
2017-12-26T05:23:02.898Z,19.9
2017-12-26T05:24:04.495Z,20
2017-12-26T05:25:06.396Z,19.9
2017-12-26T05:26:08.016Z,20
2017-12-26T05:27:09.913Z,20
2017-12-26T05:28:11.531Z,19.9
2017-12-26T05:29:12.871Z,20
2017-12-26T05:30:14.508Z,20
2017-12-26T05:31:16.387Z,20
2017-12-26T05:32:18.005Z,20
2017-12-26T05:33:19.695Z,20
2017-12-26T05:34:21.281Z,20
2017-12-26T05:35:23.176Z,20
2017-12-26T05:36:25.074Z,19.9
2017-12-26T05:37:26.691Z,20
2017-12-26T05:38:28.310Z,20
2017-12-26T05:39:29.931Z,20
2017-12-26T05:40:31.548Z,20
2017-12-26T05:41:33.442Z,20
2017-12-26T05:42:35.340Z,20
2017-12-26T05:43:37.241Z,20
2017-12-26T05:44:39.134Z,20
2017-12-26T05:45:40.477Z,20
2017-12-26T05:46:42.375Z,20
2017-12-26T05:47:43.996Z,20
2017-12-26T05:48:45.318Z,20
2017-12-26T05:49:47.255Z,20
2017-12-26T05:50:49.150Z,19.9
2017-12-26T05:51:51.046Z,19.9
2017-12-26T05:52:52.669Z,19.9
2017-12-26T05:53:54.291Z,20
2017-12-26T05:54:55.337Z,19.9
2017-12-26T05:55:56.986Z,20
2017-12-26T05:56:58.328Z,20
2017-12-26T05:57:59.645Z,19.9
2017-12-26T05:59:01.266Z,20
2017-12-26T06:00:03.159Z,19.9
2017-12-26T06:01:05.056Z,20
2017-12-26T06:02:06.652Z,20
2017-12-26T06:03:08.549Z,19.9
2017-12-26T06:04:10.446Z,20
2017-12-26T06:05:11.787Z,20
2017-12-26T06:06:13.383Z,20
2017-12-26T06:07:15.011Z,20
2017-12-26T06:08:16.628Z,19.9
2017-12-26T06:09:18.524Z,20.1
2017-12-26T06:10:20.145Z,19.9
2017-12-26T06:11:21.766Z,19.9
2017-12-26T06:12:23.662Z,20
2017-12-26T06:13:25.004Z,19.9
2017-12-26T06:14:26.632Z,19.9
2017-12-26T06:15:28.533Z,19.9
2017-12-26T06:16:30.431Z,19.9
2017-12-26T06:17:31.750Z,20
2017-12-26T06:18:33.394Z,19.9
2017-12-26T06:19:34.716Z,20
2017-12-26T06:20:36.337Z,20
2017-12-26T06:21:37.960Z,19.9
2017-12-26T06:22:39.852Z,19.9
2017-12-26T06:23:41.750Z,19.9
2017-12-26T06:24:43.347Z,20.1
2017-12-26T06:25:45.005Z,19.9
2017-12-26T06:26:46.695Z,20
2017-12-26T06:27:48.597Z,20
2017-12-26T06:28:49.641Z,19.9
2017-12-26T06:29:51.533Z,19.9
2017-12-26T06:30:53.443Z,19.9
2017-12-26T06:31:55.341Z,19.9
2017-12-26T06:32:56.958Z,20
2017-12-26T06:33:58.278Z,20
2017-12-26T06:35:00.175Z,19.9
2017-12-26T06:36:01.518Z,19.9
2017-12-26T06:37:03.153Z,20
2017-12-26T06:38:04.495Z,19.9
2017-12-26T06:39:06.391Z,20
2017-12-26T06:40:08.289Z,19.9
2017-12-26T06:41:09.885Z,19.9
2017-12-26T06:42:11.207Z,19.9
2017-12-26T06:43:12.549Z,20
2017-12-26T06:44:13.890Z,19.9
2017-12-26T06:45:15.783Z,20
2017-12-26T06:46:17.385Z,19.9
2017-12-26T06:47:19.024Z,20
2017-12-26T06:48:20.643Z,19.9
2017-12-26T06:49:22.264Z,19.9
2017-12-26T06:50:23.886Z,19.9
2017-12-26T06:51:25.231Z,19.9
2017-12-26T06:52:26.575Z,20
2017-12-26T06:53:27.897Z,20
2017-12-26T06:54:29.794Z,20
2017-12-26T06:55:31.513Z,19.9
2017-12-26T06:56:32.849Z,19.9
2017-12-26T06:57:34.746Z,19.9
2017-12-26T06:58:36.708Z,20
2017-12-26T06:59:38.307Z,19.9
2017-12-26T07:00:39.924Z,20
2017-12-26T07:01:40.988Z,19.9
2017-12-26T07:02:42.885Z,20
2017-12-26T07:03:44.206Z,19.9
2017-12-26T07:04:45.828Z,19.9
2017-12-26T07:05:46.898Z,19.9
2017-12-26T07:06:48.797Z,19.9
2017-12-26T07:07:50.415Z,20
2017-12-26T07:08:52.037Z,20.1
2017-12-26T07:09:53.661Z,19.9
2017-12-26T07:10:55.280Z,20
2017-12-26T07:11:57.180Z,20
2017-12-26T07:12:58.796Z,19.9
2017-12-26T07:14:00.143Z,20
2017-12-26T07:15:01.486Z,20
2017-12-26T07:16:03.111Z,20
2017-12-26T07:17:05.007Z,20
2017-12-26T07:18:06.906Z,20
2017-12-26T07:19:08.525Z,20
2017-12-26T07:20:10.420Z,20
2017-12-26T07:21:12.041Z,20
2017-12-26T07:22:13.665Z,20
2017-12-26T07:23:15.562Z,20
2017-12-26T07:24:16.887Z,20
2017-12-26T07:25:18.258Z,20
2017-12-26T07:26:19.882Z,20
2017-12-26T07:27:21.781Z,20
2017-12-26T07:28:22.826Z,20
2017-12-26T07:29:24.147Z,20
2017-12-26T07:30:26.046Z,20
2017-12-26T07:31:27.950Z,20
2017-12-26T07:32:28.998Z,20
2017-12-26T07:33:30.618Z,20
2017-12-26T07:34:32.240Z,20
2017-12-26T07:35:34.138Z,20
2017-12-26T07:36:35.757Z,20.1
2017-12-26T07:37:37.656Z,20
2017-12-26T07:38:39.275Z,20
2017-12-26T07:39:40.898Z,20
2017-12-26T07:40:42.520Z,20
2017-12-26T07:41:44.138Z,20
2017-12-26T07:42:45.480Z,20
2017-12-26T07:43:47.383Z,20
2017-12-26T07:44:49.279Z,20.1
2017-12-26T07:45:51.173Z,20.1
2017-12-26T07:46:53.071Z,20.1
2017-12-26T07:47:54.692Z,20.1
2017-12-26T07:48:56.037Z,20.1
2017-12-26T07:49:57.934Z,20.1
2017-12-26T07:50:58.749Z,20.1
2017-12-26T07:52:00.650Z,20.1
2017-12-26T07:53:02.549Z,20.1
2017-12-26T07:54:04.444Z,20
2017-12-26T07:55:06.343Z,20.1
2017-12-26T07:56:07.962Z,20.1
2017-12-26T07:57:09.581Z,20.1
2017-12-26T07:58:11.202Z,20
2017-12-26T07:59:12.837Z,20
2017-12-26T08:00:14.739Z,20.1
2017-12-26T08:01:15.781Z,20.1
2017-12-26T08:02:17.682Z,20.1
2017-12-26T08:03:19.582Z,20.1
2017-12-26T08:04:20.899Z,20.1
2017-12-26T08:05:22.240Z,20
2017-12-26T08:06:24.137Z,20
2017-12-26T08:07:25.758Z,20.1
2017-12-26T08:08:27.082Z,20.1
2017-12-26T08:09:28.426Z,20.1
2017-12-26T08:10:30.052Z,20.1
2017-12-26T08:11:31.954Z,20.2
2017-12-26T08:12:33.296Z,20.2
2017-12-26T08:13:35.202Z,20.1
2017-12-26T08:14:36.805Z,20.2
2017-12-26T08:15:38.696Z,20.1
2017-12-26T08:16:40.315Z,20.1
2017-12-26T08:17:41.931Z,20.2
2017-12-26T08:18:43.828Z,20.2
2017-12-26T08:19:45.150Z,20.1
2017-12-26T08:20:46.496Z,20.1
2017-12-26T08:21:48.401Z,20.1
2017-12-26T08:22:49.994Z,20.1
2017-12-26T08:23:51.318Z,20.1
2017-12-26T08:24:53.010Z,20.2
2017-12-26T08:25:54.627Z,20.1
2017-12-26T08:26:56.252Z,20.1
2017-12-26T08:27:57.592Z,20
2017-12-26T08:28:59.213Z,20.1
2017-12-26T08:30:00.838Z,20.1
2017-12-26T08:31:02.154Z,20.1
2017-12-26T08:32:03.780Z,20.1
2017-12-26T08:33:05.686Z,20.1
2017-12-26T08:34:07.007Z,20.2
2017-12-26T08:35:08.628Z,20.1
2017-12-26T08:36:10.247Z,20.2
2017-12-26T08:37:11.594Z,20.2
2017-12-26T08:38:13.214Z,20.2
2017-12-26T08:39:14.840Z,20.1
2017-12-26T08:40:16.738Z,20.1
2017-12-26T08:41:18.352Z,20.2
2017-12-26T08:42:19.972Z,20.1
2017-12-26T08:43:21.292Z,20.1
2017-12-26T08:44:22.912Z,20.2
2017-12-26T08:45:24.531Z,20.1
2017-12-26T08:46:26.131Z,20.2
2017-12-26T08:47:27.728Z,20.2
2017-12-26T08:48:29.635Z,20.2
2017-12-26T08:49:30.969Z,20.1
2017-12-26T08:50:32.294Z,20.1
2017-12-26T08:51:33.912Z,20.2
2017-12-26T08:52:35.533Z,20.2
2017-12-26T08:53:36.848Z,20.2
2017-12-26T08:54:38.750Z,20.2
2017-12-26T08:55:40.367Z,20.2
2017-12-26T08:56:41.711Z,20.2
2017-12-26T08:57:43.054Z,20.2
2017-12-26T08:58:44.950Z,20.3
2017-12-26T08:59:46.578Z,20.3
2017-12-26T09:00:47.900Z,20.2
2017-12-26T09:01:49.527Z,20.3
2017-12-26T09:02:51.142Z,20.3
2017-12-26T09:03:52.491Z,20.2
2017-12-26T09:04:54.391Z,20.2
2017-12-26T09:05:55.734Z,20.2
2017-12-26T09:06:57.355Z,20.3
2017-12-26T09:07:58.956Z,20.2
2017-12-26T09:09:00.278Z,20.2
2017-12-26T09:10:01.878Z,20.3
2017-12-26T09:11:03.479Z,20.2
2017-12-26T09:12:04.796Z,20.2
2017-12-26T09:13:06.399Z,20.2
2017-12-26T09:14:08.024Z,20.2
2017-12-26T09:15:09.932Z,20.3
2017-12-26T09:16:11.264Z,20.2
2017-12-26T09:17:12.607Z,20.3
2017-12-26T09:18:14.235Z,20.3
2017-12-26T09:19:15.859Z,20.3
2017-12-26T09:20:17.476Z,20.2
2017-12-26T09:21:19.372Z,20.2
2017-12-26T09:22:21.271Z,20.2
2017-12-26T09:23:22.996Z,20.2
2017-12-26T09:24:24.319Z,20.3
2017-12-26T09:25:26.216Z,20.2
2017-12-26T09:26:27.844Z,20.3
2017-12-26T09:27:29.736Z,20.3
2017-12-26T09:28:31.633Z,20.3
2017-12-26T09:29:33.257Z,20.2
2017-12-26T09:30:34.602Z,20.2
2017-12-26T09:31:36.499Z,20.2
2017-12-26T09:32:38.412Z,20.2
2017-12-26T09:33:40.293Z,20.2
2017-12-26T09:34:42.192Z,20.2
2017-12-26T09:35:44.088Z,20.3
2017-12-26T09:36:45.715Z,20.2
2017-12-26T09:37:47.334Z,20.2
2017-12-26T09:38:48.681Z,20.3
2017-12-26T09:39:50.299Z,20.2
2017-12-26T09:40:51.900Z,20.2
2017-12-26T09:41:53.521Z,20.2
2017-12-26T09:42:54.866Z,20.3
2017-12-26T09:43:56.760Z,20.2
2017-12-26T09:44:58.083Z,20.3
2017-12-26T09:45:59.706Z,20.3
2017-12-26T09:47:01.030Z,20.3
2017-12-26T09:48:02.651Z,20.3
2017-12-26T09:49:04.273Z,20.2
2017-12-26T09:50:06.171Z,20.3
2017-12-26T09:51:07.771Z,20.3
2017-12-26T09:52:08.837Z,20.2
2017-12-26T09:53:10.735Z,20.3
2017-12-26T09:54:12.630Z,20.3
2017-12-26T09:55:14.226Z,20.3
2017-12-26T09:56:15.845Z,20.3
2017-12-26T09:57:17.771Z,20.3
2017-12-26T09:58:18.817Z,20.3
2017-12-26T09:59:20.440Z,20.3
2017-12-26T10:00:22.338Z,20.2
2017-12-26T10:01:23.956Z,20.3
2017-12-26T10:02:25.559Z,20.3
2017-12-26T10:03:27.455Z,20.3
2017-12-26T10:04:29.355Z,20.3
2017-12-26T10:05:30.977Z,20.3
2017-12-26T10:06:32.878Z,20.3
2017-12-26T10:07:34.771Z,20.3
2017-12-26T10:08:36.124Z,20.3
2017-12-26T10:09:37.747Z,20.3
2017-12-26T10:10:38.816Z,20.3
2017-12-26T10:11:40.156Z,20.3
2017-12-26T10:12:41.777Z,20.3
2017-12-26T10:13:43.098Z,20.3
2017-12-26T10:14:44.719Z,20.3
2017-12-26T10:15:46.335Z,20.3
2017-12-26T10:16:47.381Z,20.3
2017-12-26T10:17:49.280Z,20.3
2017-12-26T10:18:51.179Z,20.3
2017-12-26T10:19:52.884Z,20.3
2017-12-26T10:20:54.201Z,20.3
2017-12-26T10:21:56.099Z,20.3
2017-12-26T10:22:57.422Z,20.3
2017-12-26T10:23:59.046Z,20.4
2017-12-26T10:25:00.941Z,20.3
2017-12-26T10:26:02.566Z,20.3
2017-12-26T10:27:04.470Z,20.3
2017-12-26T10:28:06.378Z,20.3
2017-12-26T10:29:07.706Z,20.3
2017-12-26T10:30:09.331Z,20.3
2017-12-26T10:31:11.232Z,20.3
2017-12-26T10:32:12.857Z,20.3
2017-12-26T10:33:14.205Z,20.3
2017-12-26T10:34:16.107Z,20.3
2017-12-26T10:35:18.009Z,20.3
2017-12-26T10:36:19.955Z,20.3
2017-12-26T10:37:21.582Z,20.3
2017-12-26T10:38:23.483Z,20.3
2017-12-26T10:39:25.096Z,20.3
2017-12-26T10:40:26.418Z,20.3
2017-12-26T10:41:27.744Z,20.3
2017-12-26T10:42:29.348Z,20.3
2017-12-26T10:43:30.696Z,20.3
2017-12-26T10:44:32.599Z,20.3
2017-12-26T10:45:33.930Z,20.3
2017-12-26T10:46:35.280Z,20.3
2017-12-26T10:47:36.909Z,20.3
2017-12-26T10:48:38.813Z,20.3
2017-12-26T10:49:40.419Z,20.3
2017-12-26T10:50:41.487Z,20.3
2017-12-26T10:51:43.116Z,20.4
2017-12-26T10:52:44.740Z,20.4
2017-12-26T10:53:46.637Z,20.3
2017-12-26T10:54:48.265Z,20.3
2017-12-26T10:55:49.888Z,20.4
2017-12-26T10:56:51.493Z,20.3
2017-12-26T10:57:53.105Z,20.3
2017-12-26T10:58:54.730Z,20.3
2017-12-26T10:59:56.634Z,20.3
2017-12-26T11:00:58.257Z,20.3
2017-12-26T11:01:59.890Z,20.3
2017-12-26T11:03:01.239Z,20.3
2017-12-26T11:04:03.139Z,20.3
2017-12-26T11:05:04.760Z,20.3
2017-12-26T11:06:06.385Z,20.3
2017-12-26T11:07:08.288Z,20.3
2017-12-26T11:08:09.913Z,20.3
2017-12-26T11:09:11.239Z,20.3
2017-12-26T11:10:12.866Z,20.3
2017-12-26T11:11:14.467Z,20.3
2017-12-26T11:12:16.370Z,20.3
2017-12-26T11:13:18.273Z,20.3
2017-12-26T11:14:19.898Z,20.3
2017-12-26T11:15:21.523Z,20.3
2017-12-26T11:16:23.131Z,20.3
2017-12-26T11:17:24.759Z,20.3
2017-12-26T11:18:26.664Z,20.3
2017-12-26T11:19:27.985Z,20.3
2017-12-26T11:20:29.331Z,20.3
2017-12-26T11:21:31.237Z,20.3
2017-12-26T11:22:32.880Z,20.3
2017-12-26T11:23:34.530Z,20.3
2017-12-26T11:24:36.432Z,20.3
2017-12-26T11:25:38.055Z,20.3
2017-12-26T11:26:39.404Z,20.4
2017-12-26T11:27:41.032Z,20.4
2017-12-26T11:28:42.941Z,20.4
2017-12-26T11:29:44.843Z,20.4
2017-12-26T11:30:46.512Z,20.4
2017-12-26T11:31:48.139Z,20.4
2017-12-26T11:32:49.486Z,20.4
2017-12-26T11:33:50.536Z,20.4
2017-12-26T11:34:51.881Z,20.4
2017-12-26T11:35:53.207Z,20.4
2017-12-26T11:36:54.813Z,20.4
2017-12-26T11:37:55.861Z,20.3
2017-12-26T11:38:57.189Z,20.4
2017-12-26T11:39:58.816Z,20.4
2017-12-26T11:41:00.736Z,20.4
2017-12-26T11:42:02.413Z,20.3
2017-12-26T11:43:04.040Z,20.4
2017-12-26T11:44:05.386Z,20.4
2017-12-26T11:45:06.460Z,20.4
2017-12-26T11:46:08.085Z,20.4
2017-12-26T11:47:09.989Z,20.4
2017-12-26T11:48:11.892Z,20.4
2017-12-26T11:49:13.218Z,20.4
2017-12-26T11:50:15.175Z,20.3
2017-12-26T11:51:16.791Z,20.4
2017-12-26T11:52:18.694Z,20.4
2017-12-26T11:53:20.598Z,20.4
2017-12-26T11:54:22.199Z,20.4
2017-12-26T11:55:23.548Z,20.4
2017-12-26T11:56:24.898Z,20.4
2017-12-26T11:57:26.224Z,20.4
2017-12-26T11:58:28.126Z,20.4
2017-12-26T11:59:30.032Z,20.4
2017-12-26T12:00:31.934Z,20.4
2017-12-26T12:01:33.562Z,20.4
2017-12-26T12:02:35.285Z,20.3
2017-12-26T12:03:37.188Z,20.4
2017-12-26T12:04:38.814Z,20.4
2017-12-26T12:05:40.717Z,20.4
2017-12-26T12:06:42.620Z,20.4
2017-12-26T12:07:44.224Z,20.4
2017-12-26T12:08:45.850Z,20.4
2017-12-26T12:09:47.481Z,20.4
2017-12-26T12:10:49.106Z,20.4
2017-12-26T12:11:50.451Z,20.4
2017-12-26T12:12:51.845Z,20.4
2017-12-26T12:13:53.191Z,20.4
2017-12-26T12:14:54.260Z,20.4
2017-12-26T12:15:55.886Z,20.4
2017-12-26T12:16:57.547Z,20.4
2017-12-26T12:17:58.587Z,20.4
2017-12-26T12:18:59.636Z,20.4
2017-12-26T12:20:01.261Z,20.4
2017-12-26T12:21:03.196Z,20.4
2017-12-26T12:22:04.807Z,20.4
2017-12-26T12:23:06.427Z,20.4
2017-12-26T12:24:08.031Z,20.4
2017-12-26T12:25:09.657Z,20.4
2017-12-26T12:26:11.284Z,20.3
2017-12-26T12:27:12.915Z,20.4
2017-12-26T12:28:14.258Z,20.3
2017-12-26T12:29:15.885Z,20.4
2017-12-26T12:30:17.234Z,20.4
2017-12-26T12:31:19.139Z,20.4
2017-12-26T12:32:20.899Z,20.4
2017-12-26T12:33:22.537Z,20.4
2017-12-26T12:34:24.444Z,20.4
2017-12-26T12:35:26.353Z,20.3
2017-12-26T12:36:27.745Z,20.4
2017-12-26T12:37:29.066Z,20.4
2017-12-26T12:38:30.972Z,20.4
2017-12-26T12:39:31.741Z,20.4
2017-12-26T12:40:32.793Z,20.4
2017-12-26T12:41:34.417Z,20.4
2017-12-26T12:42:36.045Z,20.4
2017-12-26T12:43:37.665Z,20.3
2017-12-26T12:44:39.293Z,20.4
2017-12-26T12:45:40.922Z,20.4
2017-12-26T12:46:42.827Z,20.4
2017-12-26T12:47:44.174Z,20.4
2017-12-26T12:48:46.082Z,20.4
2017-12-26T12:49:47.759Z,20.4
2017-12-26T12:50:49.661Z,20.4
2017-12-26T12:51:51.013Z,20.3
2017-12-26T12:52:52.614Z,20.4
2017-12-26T12:53:54.518Z,20.4
2017-12-26T12:54:55.870Z,20.3
2017-12-26T12:55:57.497Z,20.4
2017-12-26T12:56:59.123Z,20.4
2017-12-26T12:58:00.478Z,20.4
2017-12-26T12:59:02.395Z,20.4
2017-12-26T13:00:03.994Z,20.4
2017-12-26T13:01:05.613Z,20.3
2017-12-26T13:02:07.234Z,20.4
2017-12-26T13:03:08.284Z,20.4
2017-12-26T13:04:10.187Z,20.4
2017-12-26T13:05:11.539Z,20.4
2017-12-26T13:06:12.862Z,20.4
2017-12-26T13:07:13.917Z,20.4
2017-12-26T13:08:15.520Z,20.4
2017-12-26T13:09:17.175Z,20.4
2017-12-26T13:10:18.777Z,20.4
2017-12-26T13:11:20.126Z,20.4
2017-12-26T13:12:21.748Z,20.3
2017-12-26T13:13:22.802Z,20.4
2017-12-26T13:14:24.701Z,20.4
2017-12-26T13:15:26.303Z,20.4
2017-12-26T13:16:27.904Z,20.4
2017-12-26T13:17:29.516Z,20.4
2017-12-26T13:18:31.417Z,20.4
2017-12-26T13:19:32.766Z,20.4
2017-12-26T13:20:34.403Z,20.4
2017-12-26T13:21:36.051Z,20.4
2017-12-26T13:22:37.654Z,20.4
2017-12-26T13:23:38.701Z,20.3
2017-12-26T13:24:40.601Z,20.4
2017-12-26T13:25:42.204Z,20.4
2017-12-26T13:26:43.538Z,20.4
2017-12-26T13:27:44.870Z,20.4
2017-12-26T13:28:46.494Z,20.4
2017-12-26T13:29:48.120Z,20.4
2017-12-26T13:30:49.724Z,20.3
2017-12-26T13:31:51.073Z,20.3
2017-12-26T13:32:52.678Z,20.4
2017-12-26T13:33:54.302Z,20.4
2017-12-26T13:34:56.214Z,20.4
2017-12-26T13:35:58.105Z,20.4
2017-12-26T13:36:59.743Z,20.4
2017-12-26T13:38:01.631Z,20.4
2017-12-26T13:39:03.539Z,20.4
2017-12-26T13:40:05.207Z,20.4
2017-12-26T13:41:06.523Z,20.4
2017-12-26T13:42:08.420Z,20.3
2017-12-26T13:43:09.759Z,20.3
2017-12-26T13:44:11.363Z,20.3
2017-12-26T13:45:13.034Z,20.3
2017-12-26T13:46:14.655Z,20.3
2017-12-26T13:47:16.549Z,20.3